Time;durP1;ratioP1;P1;durP2;ratioP2;P2;SDS_P1;SDS_P2;PMS_P1;PMS_P2;Temp;Humidity;BMP_temperature;BMP_pressure;BME280_temperature;BME280_humidity;BME280_pressure;Samples;Min_cycle;Max_cycle;Signal;HPM_P1;HPM_P2
2022/08/27 00:00:30;;;;;;;1.08;0.80;;;;;;;28.71;47.27;98145.59;2105895;28;20052;-49
2022/08/27 00:01:31;;;;;;;0.70;0.70;;;;;;;28.73;47.21;98140.69;2104217;28;20508;-47
2022/08/27 00:02:34;;;;;;;1.17;0.70;;;;;;;28.72;47.19;98149.97;2106325;28;20051;-48
2022/08/27 00:03:37;;;;;;;1.45;1.20;;;;;;;28.74;47.03;98139.56;2105089;28;20056;-46
2022/08/27 00:04:39;;;;;;;1.13;0.88;;;;;;;28.74;47.05;98139.56;2096034;27;20059;-46
2022/08/27 00:05:42;;;;;;;0.93;0.75;;;;;;;28.74;47.07;98146.94;2105462;27;20665;-46
2022/08/27 00:06:43;;;;;;;1.25;0.80;;;;;;;28.73;47.01;98142.59;2106516;27;20051;-47
2022/08/27 00:07:45;;;;;;;1.10;1.00;;;;;;;28.75;47.26;98148.56;2107646;28;20130;-45
2022/08/27 00:08:47;;;;;;;2.03;0.88;;;;;;;28.72;47.13;98144.53;2103864;28;20489;-45
2022/08/27 00:09:48;;;;;;;0.63;0.63;;;;;;;28.74;47.16;98146.94;2103544;28;20062;-47
2022/08/27 00:10:51;;;;;;;0.85;0.75;;;;;;;28.74;47.18;98142.28;2105184;28;20040;-46
2022/08/27 00:11:53;;;;;;;2.20;0.80;;;;;;;28.73;47.16;98148.88;2104855;27;20048;-47
2022/08/27 00:12:54;;;;;;;1.02;0.93;;;;;;;28.73;47.17;98150.78;2107381;27;20048;-45
2022/08/27 00:13:56;;;;;;;0.95;0.70;;;;;;;28.74;47.29;98147.75;2105018;28;20047;-47
2022/08/27 00:14:59;;;;;;;0.60;0.60;;;;;;;28.74;47.20;98149.69;2105770;28;20155;-46
2022/08/27 00:16:01;;;;;;;0.70;0.70;;;;;;;28.71;47.36;98153.78;2107275;28;20699;-54
2022/08/27 00:17:03;;;;;;;1.55;1.00;;;;;;;28.72;47.22;98151.88;2109738;27;20524;-44
2022/08/27 00:18:06;;;;;;;1.65;0.93;;;;;;;28.73;47.17;98146.13;2104624;28;20079;-46
2022/08/27 00:19:06;;;;;;;0.88;0.80;;;;;;;28.71;47.22;98153.78;2105146;28;20590;-46
2022/08/27 00:20:09;;;;;;;0.88;0.50;;;;;;;28.68;47.54;98148.88;2104725;28;20097;-47
2022/08/27 00:21:10;;;;;;;1.13;1.02;;;;;;;28.70;47.28;98146.72;2103725;28;20445;-47
2022/08/27 00:22:12;;;;;;;1.77;1.17;;;;;;;28.69;47.38;98147.78;2108302;28;20051;-46
2022/08/27 00:23:13;;;;;;;0.70;0.70;;;;;;;28.71;47.31;98144.78;2105126;27;20063;-47
2022/08/27 00:24:15;;;;;;;0.73;0.73;;;;;;;28.69;47.45;98142.31;2106502;28;20470;-47
2022/08/27 00:25:16;;;;;;;1.50;1.05;;;;;;;28.71;47.26;98145.59;2107368;28;20086;-47
2022/08/27 00:26:19;;;;;;;1.23;0.70;;;;;;;28.68;47.37;98146.16;2105719;28;20059;-47
2022/08/27 00:27:20;;;;;;;1.05;0.95;;;;;;;28.68;47.43;98148.88;2106583;27;20752;-46
2022/08/27 00:28:22;;;;;;;1.02;0.70;;;;;;;28.68;47.40;98145.34;2108878;28;20051;-47
2022/08/27 00:29:25;;;;;;;0.90;0.55;;;;;;;28.69;47.46;98141.50;2107115;28;20063;-47
2022/08/27 00:30:27;;;;;;;2.55;0.82;;;;;;;28.67;47.50;98141.00;2106828;28;20422;-47
2022/08/27 00:31:28;;;;;;;1.20;0.90;;;;;;;28.67;47.51;98143.72;2110166;28;20657;-47
2022/08/27 00:32:29;;;;;;;1.35;1.02;;;;;;;28.65;47.34;98144.00;2107521;27;20048;-48
2022/08/27 00:33:30;;;;;;;1.13;0.82;;;;;;;28.67;47.32;98147.28;2104030;28;20055;-46
2022/08/27 00:34:32;;;;;;;1.33;1.10;;;;;;;28.67;47.42;98146.47;2107298;28;20865;-46
2022/08/27 00:35:33;;;;;;;1.27;0.73;;;;;;;28.64;47.54;98153.28;2102925;27;20097;-45
2022/08/27 00:36:35;;;;;;;1.48;0.80;;;;;;;28.66;47.57;98140.16;2106243;28;20044;-45
2022/08/27 00:37:36;;;;;;;2.15;1.48;;;;;;;28.66;47.45;98142.88;2108475;28;20048;-45
2022/08/27 00:38:39;;;;;;;1.17;0.88;;;;;;;28.66;47.57;98145.63;2106587;28;20058;-45
2022/08/27 00:39:40;;;;;;;1.30;1.20;;;;;;;28.66;47.44;98142.88;2106479;28;20123;-47
2022/08/27 00:40:43;;;;;;;1.17;0.77;;;;;;;28.67;47.51;98139.09;2107607;27;20048;-48
2022/08/27 00:41:45;;;;;;;1.30;0.85;;;;;;;28.67;47.39;98138.28;2105011;27;20126;-47
2022/08/27 00:42:49;;;;;;;0.70;0.70;;;;;;;28.64;47.35;98142.38;2107326;27;20084;-48
2022/08/27 00:43:52;;;;;;;1.83;0.98;;;;;;;28.64;47.61;98141.53;2105632;28;20051;-48
2022/08/27 00:44:54;;;;;;;1.38;1.02;;;;;;;28.65;47.53;98135.81;2106372;28;20051;-48
2022/08/27 00:46:01;;;;;;;1.00;1.00;;;;;;;28.64;47.49;98139.66;2104749;28;20052;-48
2022/08/27 00:47:07;;;;;;;1.02;0.85;;;;;;;28.67;47.43;98141.81;2097237;28;20044;-45
2022/08/27 00:48:11;;;;;;;0.60;0.60;;;;;;;28.64;47.48;98142.38;2107204;27;20066;-47
2022/08/27 00:49:20;;;;;;;0.80;0.80;;;;;;;28.62;47.53;98141.84;2104120;28;20625;-49
2022/08/27 00:50:29;;;;;;;0.85;0.80;;;;;;;28.64;47.37;98145.09;2110081;28;20486;-48
2022/08/27 00:51:32;;;;;;;0.80;0.68;;;;;;;28.62;47.48;98147.28;2107189;27;20047;-49
2022/08/27 00:52:36;;;;;;;1.15;0.90;;;;;;;28.66;47.50;98145.63;2106686;28;20058;-51
2022/08/27 00:53:39;;;;;;;1.08;0.98;;;;;;;28.64;47.86;98144.28;2099962;28;20054;-51
2022/08/27 00:54:40;;;;;;;1.25;1.15;;;;;;;28.64;47.61;98138.81;2096226;28;20560;-51
2022/08/27 00:55:45;;;;;;;1.38;1.00;;;;;;;28.64;47.57;98138.81;2101219;28;20127;-48
2022/08/27 00:56:48;;;;;;;2.47;0.82;;;;;;;28.63;47.53;98146.19;2098300;28;20048;-47
2022/08/27 00:57:56;;;;;;;2.08;1.00;;;;;;;28.66;47.48;98142.88;2098806;28;20041;-48
2022/08/27 00:58:57;;;;;;;1.55;1.45;;;;;;;28.61;47.44;98137.50;2096509;28;20055;-47
2022/08/27 00:59:58;;;;;;;1.60;1.00;;;;;;;28.62;47.47;98141.84;2096345;28;20052;-47
2022/08/27 01:01:00;;;;;;;1.55;0.98;;;;;;;28.64;47.54;98147.84;2098060;28;20082;-47
2022/08/27 01:02:20;;;;;;;1.60;1.23;;;;;;;28.64;47.39;98150.56;2096784;28;20787;-46
2022/08/27 01:03:21;;;;;;;1.30;0.70;;;;;;;28.61;47.39;98159.31;2095019;28;20051;-48
2022/08/27 01:04:23;;;;;;;1.23;1.13;;;;;;;28.62;47.43;98150.03;2097282;28;20136;-47
2022/08/27 01:05:25;;;;;;;2.20;0.90;;;;;;;28.64;47.37;98153.28;2099282;28;20491;-45
2022/08/27 01:06:35;;;;;;;0.80;0.68;;;;;;;28.65;47.27;98159.56;2100632;28;20090;-47
2022/08/27 01:07:39;;;;;;;0.85;0.85;;;;;;;28.66;47.30;98153.81;2095743;28;20518;-46
2022/08/27 01:08:45;;;;;;;1.17;0.93;;;;;;;28.66;47.40;98156.53;2097126;28;20478;-47
2022/08/27 01:09:48;;;;;;;1.63;0.95;;;;;;;28.65;47.44;98154.09;2097586;28;20729;-45
2022/08/27 01:10:52;;;;;;;1.13;0.80;;;;;;;28.62;47.44;98150.03;2096083;28;20056;-49
2022/08/27 01:11:56;;;;;;;1.20;1.10;;;;;;;28.63;47.47;98157.09;2095335;28;20075;-49
2022/08/27 01:12:58;;;;;;;2.10;0.98;;;;;;;28.67;47.38;98154.66;2095753;28;20087;-47
2022/08/27 01:13:59;;;;;;;1.48;0.80;;;;;;;28.65;47.42;98154.91;2096645;28;20055;-47
2022/08/27 01:15:03;;;;;;;1.27;0.98;;;;;;;28.65;47.41;98157.66;2097267;28;20086;-46
2022/08/27 01:16:07;;;;;;;0.80;0.80;;;;;;;28.65;47.37;98157.66;2100763;28;20048;-47
2022/08/27 01:17:10;;;;;;;1.25;1.05;;;;;;;28.66;47.36;98155.72;2099565;28;20514;-46
2022/08/27 01:18:12;;;;;;;1.40;0.80;;;;;;;28.68;47.44;98157.06;2097291;28;20053;-46
2022/08/27 01:19:22;;;;;;;1.88;1.17;;;;;;;28.66;47.36;98156.53;2100293;28;20083;-45
2022/08/27 01:20:27;;;;;;;0.90;0.80;;;;;;;28.64;47.30;98158.75;2096669;28;20052;-46
2022/08/27 01:21:36;;;;;;;1.10;1.00;;;;;;;28.64;47.21;98156.03;2096270;28;20097;-45
2022/08/27 01:22:47;;;;;;;1.80;0.98;;;;;;;28.64;47.45;98155.19;2095791;28;20036;-46
2022/08/27 01:23:56;;;;;;;3.17;1.00;;;;;;;28.64;47.54;98156.03;2101550;28;20513;-48
2022/08/27 01:25:03;;;;;;;1.23;1.13;;;;;;;28.64;47.40;98156.03;2097084;28;20045;-47
2022/08/27 01:26:08;;;;;;;1.60;1.42;;;;;;;28.65;47.54;98162.28;2095411;28;20049;-46
2022/08/27 01:27:12;;;;;;;2.90;1.00;;;;;;;28.63;47.46;98162.56;2098137;28;20051;-47
2022/08/27 01:28:15;;;;;;;1.52;0.95;;;;;;;28.62;47.65;98155.47;2094844;28;20484;-48
2022/08/27 01:29:17;;;;;;;1.15;0.90;;;;;;;28.63;47.71;98150.84;2102509;28;20055;-45
2022/08/27 01:30:22;;;;;;;1.00;1.00;;;;;;;28.62;47.56;98154.66;2098733;28;20048;-47
2022/08/27 01:31:23;;;;;;;0.63;0.60;;;;;;;28.62;47.55;98154.66;2098047;28;20060;-47
2022/08/27 01:32:30;;;;;;;0.82;0.82;;;;;;;28.63;47.63;98156.28;2100855;28;20051;-45
2022/08/27 01:33:30;;;;;;;1.02;0.93;;;;;;;28.63;47.60;98156.28;2096610;28;20048;-45
2022/08/27 01:34:33;;;;;;;1.42;0.98;;;;;;;28.62;47.35;98157.41;2097257;28;20550;-47
2022/08/27 01:35:34;;;;;;;1.10;1.00;;;;;;;28.63;47.50;98161.75;2099904;28;20044;-46
2022/08/27 01:36:36;;;;;;;1.05;0.73;;;;;;;28.62;47.75;98149.22;2099631;28;20044;-47
2022/08/27 01:37:37;;;;;;;1.85;1.33;;;;;;;28.62;47.51;98154.66;2099640;28;20044;-45
2022/08/27 01:38:38;;;;;;;1.02;1.00;;;;;;;28.63;47.49;98154.38;2097486;28;20040;-45
2022/08/27 01:39:40;;;;;;;0.90;0.90;;;;;;;28.61;47.72;98162.03;2096357;28;20055;-47
2022/08/27 01:40:44;;;;;;;1.00;0.90;;;;;;;28.62;47.49;98160.94;2095833;28;20054;-47
2022/08/27 01:41:45;;;;;;;1.25;1.00;;;;;;;28.59;47.67;98158.78;2095744;28;20044;-48
2022/08/27 01:42:50;;;;;;;1.17;0.93;;;;;;;28.60;47.74;98154.13;2097457;28;20048;-47
2022/08/27 01:43:51;;;;;;;0.90;0.88;;;;;;;28.61;47.55;98156.59;2096191;28;20051;-48
2022/08/27 01:44:55;;;;;;;0.88;0.75;;;;;;;28.60;47.50;98160.41;2100523;28;20063;-45
2022/08/27 01:45:56;;;;;;;1.10;1.00;;;;;;;28.60;47.67;98162.31;2095311;28;20051;-46
2022/08/27 01:46:58;;;;;;;1.13;1.02;;;;;;;28.61;47.59;98159.31;2100070;28;20535;-45
2022/08/27 01:48:01;;;;;;;2.60;0.80;;;;;;;28.59;47.55;98161.50;2097562;28;20688;-45
2022/08/27 01:49:02;;;;;;;1.10;1.00;;;;;;;28.60;47.54;98160.41;2099105;28;20666;-48
2022/08/27 01:50:06;;;;;;;2.13;1.02;;;;;;;28.62;47.50;98154.66;2094230;28;20055;-46
2022/08/27 01:51:08;;;;;;;2.97;1.33;;;;;;;28.61;47.59;98153.84;2095374;28;20050;-46
2022/08/27 01:52:10;;;;;;;1.02;0.93;;;;;;;28.60;47.51;98157.66;2095241;28;20046;-45
2022/08/27 01:53:19;;;;;;;1.30;1.00;;;;;;;28.63;47.60;98161.75;2095124;28;20052;-46
2022/08/27 01:54:20;;;;;;;1.02;0.93;;;;;;;28.61;47.58;98153.84;2099819;28;20066;-46
2022/08/27 01:55:24;;;;;;;1.83;0.95;;;;;;;28.61;47.79;98163.94;2098661;28;20056;-48
2022/08/27 01:56:26;;;;;;;2.67;0.73;;;;;;;28.58;47.63;98154.41;2096916;28;20049;-47
2022/08/27 01:57:28;;;;;;;1.75;1.10;;;;;;;28.59;47.66;98150.59;2101713;28;20048;-46
2022/08/27 01:58:30;;;;;;;1.10;1.00;;;;;;;28.59;47.64;98152.50;2097744;28;20059;-45
2022/08/27 01:59:32;;;;;;;1.20;1.10;;;;;;;28.61;47.42;98159.31;2096065;28;20052;-45
2022/08/27 02:00:37;;;;;;;1.05;0.70;;;;;;;28.62;47.46;98155.47;2095966;28;20124;-46
2022/08/27 02:01:39;;;;;;;2.60;1.17;;;;;;;28.60;47.53;98159.59;2095547;28;20048;-45
2022/08/27 02:02:41;;;;;;;0.85;0.80;;;;;;;28.62;47.51;98162.84;2096338;28;20043;-46
2022/08/27 02:03:43;;;;;;;1.23;1.02;;;;;;;28.62;47.63;98160.13;2097937;28;20059;-45
2022/08/27 02:04:44;;;;;;;0.70;0.68;;;;;;;28.60;47.53;98151.41;2097009;28;20055;-45
2022/08/27 02:05:47;;;;;;;1.75;0.80;;;;;;;28.62;47.49;98151.94;2099505;28;20039;-46
2022/08/27 02:06:48;;;;;;;1.05;0.90;;;;;;;28.60;47.67;98159.59;2094979;28;20052;-47
2022/08/27 02:07:50;;;;;;;1.30;0.98;;;;;;;28.58;47.58;98162.59;2098193;28;20036;-46
2022/08/27 02:08:51;;;;;;;0.98;0.80;;;;;;;28.57;47.58;98155.50;2098137;28;20070;-46
2022/08/27 02:09:53;;;;;;;2.90;1.13;;;;;;;28.59;47.44;98157.97;2097886;28;20135;-45
2022/08/27 02:10:54;;;;;;;1.10;0.80;;;;;;;28.61;47.51;98150.28;2098190;28;20485;-48
2022/08/27 02:11:58;;;;;;;0.73;0.73;;;;;;;28.62;47.46;98149.22;2094849;28;20063;-47
2022/08/27 02:12:59;;;;;;;1.58;0.93;;;;;;;28.59;47.56;98153.31;2097178;28;20448;-47
2022/08/27 02:14:01;;;;;;;0.80;0.75;;;;;;;28.59;47.57;98150.59;2099112;28;20076;-45
2022/08/27 02:15:03;;;;;;;1.00;0.90;;;;;;;28.60;47.23;98160.41;2096497;28;20049;-45
2022/08/27 02:16:06;;;;;;;1.67;1.30;;;;;;;28.60;47.37;98156.84;2106017;28;20123;-45
2022/08/27 02:17:06;;;;;;;1.30;1.13;;;;;;;28.60;47.53;98151.41;2108506;27;20067;-47
2022/08/27 02:18:10;;;;;;;1.20;0.80;;;;;;;28.60;47.60;98156.84;2103377;28;20048;-45
2022/08/27 02:19:11;;;;;;;0.82;0.80;;;;;;;28.58;47.65;98156.31;2107336;28;20051;-46
2022/08/27 02:20:14;;;;;;;1.45;1.15;;;;;;;28.61;47.46;98156.59;2105600;28;20503;-45
2022/08/27 02:21:14;;;;;;;1.35;1.10;;;;;;;28.60;47.30;98154.94;2107220;27;20048;-46
2022/08/27 02:22:16;;;;;;;0.65;0.65;;;;;;;28.63;47.26;98161.75;2105013;28;20126;-45
2022/08/27 02:23:17;;;;;;;1.25;0.90;;;;;;;28.61;47.42;98164.78;2103970;27;20051;-47
2022/08/27 02:24:19;;;;;;;0.82;0.82;;;;;;;28.61;47.50;98156.59;2105189;27;20095;-45
2022/08/27 02:25:20;;;;;;;1.73;0.80;;;;;;;28.60;47.51;98154.13;2109859;28;20051;-45
2022/08/27 02:26:22;;;;;;;1.00;0.80;;;;;;;28.58;47.39;98154.41;2108159;28;20135;-45
2022/08/27 02:27:26;;;;;;;1.70;0.98;;;;;;;28.60;47.28;98159.59;2105136;28;20047;-45
2022/08/27 02:28:26;;;;;;;1.63;1.27;;;;;;;28.58;47.51;98154.41;2108541;28;20071;-47
2022/08/27 02:29:28;;;;;;;1.27;0.90;;;;;;;28.59;47.57;98160.69;2105868;28;20440;-46
2022/08/27 02:30:31;;;;;;;2.60;1.33;;;;;;;28.61;47.40;98153.84;2107448;28;20047;-46
2022/08/27 02:31:33;;;;;;;1.10;0.77;;;;;;;28.58;47.42;98148.94;2107326;27;20524;-47
2022/08/27 02:32:34;;;;;;;2.03;1.15;;;;;;;28.58;47.52;98153.59;2105586;28;20052;-45
2022/08/27 02:33:36;;;;;;;1.75;1.15;;;;;;;28.58;47.42;98154.41;2105814;27;20048;-47
2022/08/27 02:34:37;;;;;;;1.38;0.80;;;;;;;28.58;47.30;98143.47;2103843;28;20659;-46
2022/08/27 02:35:39;;;;;;;1.95;1.15;;;;;;;28.58;47.23;98148.94;2104540;28;20047;-46
2022/08/27 02:36:40;;;;;;;1.00;0.88;;;;;;;28.59;47.53;98150.59;2109337;28;20116;-46
2022/08/27 02:37:42;;;;;;;1.27;1.17;;;;;;;28.60;47.67;98145.94;2107150;28;20077;-47
2022/08/27 02:38:43;;;;;;;1.08;0.90;;;;;;;28.58;47.51;98146.22;2105140;27;20198;-46
2022/08/27 02:39:45;;;;;;;1.10;0.98;;;;;;;28.56;47.66;98147.63;2107299;28;20509;-47
2022/08/27 02:40:46;;;;;;;0.93;0.80;;;;;;;28.55;47.76;98146.78;2106199;28;20052;-45
2022/08/27 02:41:48;;;;;;;1.35;0.77;;;;;;;28.57;47.73;98150.03;2104321;28;20238;-46
2022/08/27 02:42:50;;;;;;;1.95;1.60;;;;;;;28.57;47.50;98151.97;2104189;28;20056;-47
2022/08/27 02:43:52;;;;;;;0.75;0.57;;;;;;;28.55;47.60;98144.03;2105798;28;20096;-45
2022/08/27 02:44:53;;;;;;;0.80;0.70;;;;;;;28.58;47.54;98142.66;2107561;28;20059;-45
2022/08/27 02:45:55;;;;;;;2.92;1.08;;;;;;;28.55;47.66;98144.03;2104075;28;20150;-46
2022/08/27 02:46:56;;;;;;;1.98;1.08;;;;;;;28.55;47.60;98144.03;2104460;28;20116;-45
2022/08/27 02:47:58;;;;;;;0.90;0.68;;;;;;;28.55;47.68;98144.03;2105920;27;20104;-46
2022/08/27 02:48:59;;;;;;;2.05;1.17;;;;;;;28.56;47.71;98142.97;2104189;27;20765;-47
2022/08/27 02:50:01;;;;;;;0.75;0.60;;;;;;;28.57;47.67;98146.50;2105278;27;20056;-47
2022/08/27 02:51:04;;;;;;;1.42;0.90;;;;;;;28.57;47.69;98141.06;2096300;28;20061;-45
2022/08/27 02:52:06;;;;;;;0.90;0.80;;;;;;;28.57;47.66;98146.50;2097828;28;20084;-49
2022/08/27 02:53:08;;;;;;;1.33;0.80;;;;;;;28.56;47.80;98144.88;2099208;28;20052;-47
2022/08/27 02:54:10;;;;;;;1.05;0.95;;;;;;;28.56;47.66;98145.69;2096457;28;20063;-47
2022/08/27 02:55:13;;;;;;;2.00;1.08;;;;;;;28.58;47.72;98145.41;2094585;28;20044;-47
2022/08/27 02:56:14;;;;;;;1.15;1.05;;;;;;;28.58;47.67;98151.66;2097457;28;20055;-46
2022/08/27 02:57:15;;;;;;;1.85;1.05;;;;;;;28.58;47.59;98143.47;2097914;28;20063;-46
2022/08/27 02:58:18;;;;;;;1.00;0.80;;;;;;;28.57;47.70;98150.03;2099439;28;20123;-48
2022/08/27 02:59:20;;;;;;;1.65;1.15;;;;;;;28.56;47.67;98151.16;2095906;28;20056;-45
2022/08/27 03:00:26;;;;;;;1.48;0.80;;;;;;;28.57;47.66;98151.97;2097095;28;20424;-51
2022/08/27 03:01:27;;;;;;;0.90;0.73;;;;;;;28.54;47.46;98142.44;2096536;28;20109;-45
2022/08/27 03:02:29;;;;;;;1.00;0.90;;;;;;;28.55;47.47;98144.03;2097623;28;20044;-50
2022/08/27 03:03:30;;;;;;;1.27;0.68;;;;;;;28.56;47.78;98140.25;2098485;28;21205;-46
2022/08/27 03:04:32;;;;;;;1.13;0.82;;;;;;;28.57;47.69;98143.78;2094771;28;20044;-48
2022/08/27 03:05:33;;;;;;;2.33;0.98;;;;;;;28.56;47.64;98139.44;2096284;28;20052;-45
2022/08/27 03:06:34;;;;;;;1.60;0.82;;;;;;;28.54;47.74;98139.69;2097852;28;20048;-46
2022/08/27 03:07:36;;;;;;;0.90;0.80;;;;;;;28.55;47.53;98137.78;2098532;28;20041;-52
2022/08/27 03:08:38;;;;;;;1.60;1.02;;;;;;;28.55;47.67;98138.59;2097636;28;20055;-46
2022/08/27 03:09:39;;;;;;;2.35;1.05;;;;;;;28.55;47.53;98135.84;2096345;28;20040;-48
2022/08/27 03:10:41;;;;;;;1.77;1.08;;;;;;;28.55;47.58;98135.06;2100199;28;20056;-49
2022/08/27 03:11:41;;;;;;;1.17;0.90;;;;;;;28.53;47.55;98135.34;2097978;28;20635;-47
2022/08/27 03:12:44;;;;;;;3.03;0.82;;;;;;;28.53;47.66;98132.63;2096387;28;20063;-49
2022/08/27 03:13:46;;;;;;;1.23;0.82;;;;;;;28.52;47.61;98134.50;2097493;28;20131;-48
2022/08/27 03:14:48;;;;;;;1.73;0.98;;;;;;;28.50;47.76;98133.16;2093775;28;20136;-48
2022/08/27 03:15:48;;;;;;;1.65;0.90;;;;;;;28.52;47.52;98134.50;2095231;28;20055;-48
2022/08/27 03:16:50;;;;;;;1.23;0.90;;;;;;;28.51;47.48;98134.81;2094896;28;20059;-48
2022/08/27 03:19:10;;;;;;;1.10;1.00;;;;;;;28.47;47.96;98129.09;2096277;28;20510;-49
2022/08/27 03:20:12;;;;;;;2.47;1.00;;;;;;;28.44;47.90;98126.91;2103250;28;20056;-47
2022/08/27 03:21:18;;;;;;;1.75;1.02;;;;;;;28.48;47.68;98124.47;2105765;28;20425;-50
2022/08/27 03:22:18;;;;;;;1.77;0.80;;;;;;;28.48;47.74;98127.19;2102347;28;20055;-49
2022/08/27 03:23:23;;;;;;;1.48;0.82;;;;;;;28.48;47.60;98119.00;2104507;28;20139;-46
2022/08/27 03:24:24;;;;;;;1.17;1.00;;;;;;;28.45;47.67;98128.56;2104402;28;20063;-46
2022/08/27 03:25:26;;;;;;;0.98;0.77;;;;;;;28.47;47.78;98125.53;2103954;28;20044;-49
2022/08/27 03:26:28;;;;;;;1.63;1.10;;;;;;;28.43;47.78;98125.28;2104561;28;20507;-50
2022/08/27 03:27:30;;;;;;;0.60;0.60;;;;;;;28.46;47.72;98129.38;2103387;28;20067;-47
2022/08/27 03:28:32;;;;;;;1.27;0.85;;;;;;;28.47;47.52;98126.38;2106480;28;20044;-46
2022/08/27 03:29:36;;;;;;;1.42;0.95;;;;;;;28.46;47.72;98129.38;2106453;28;20063;-50
2022/08/27 03:30:37;;;;;;;0.85;0.77;;;;;;;28.44;47.52;98126.09;2102787;28;20048;-48
2022/08/27 03:31:39;;;;;;;1.73;0.70;;;;;;;28.45;47.53;98123.09;2103884;28;20052;-46
2022/08/27 03:32:40;;;;;;;0.75;0.70;;;;;;;28.44;47.45;98124.19;2105804;28;20048;-50
2022/08/27 03:33:43;;;;;;;2.65;1.10;;;;;;;28.46;47.51;98126.66;2103081;28;20048;-46
2022/08/27 03:34:43;;;;;;;0.85;0.80;;;;;;;28.45;47.37;98125.03;2105678;28;20131;-51
2022/08/27 03:35:46;;;;;;;1.40;0.95;;;;;;;28.45;47.55;98127.75;2105969;28;20060;-47
2022/08/27 03:36:50;;;;;;;0.90;0.70;;;;;;;28.47;47.58;98123.66;2103766;28;20119;-48
2022/08/27 03:37:50;;;;;;;0.85;0.80;;;;;;;28.43;47.70;98119.84;2104700;28;20158;-46
2022/08/27 03:38:52;;;;;;;0.98;0.88;;;;;;;28.44;47.46;98117.91;2106225;28;20158;-49
2022/08/27 03:39:53;;;;;;;1.02;0.93;;;;;;;28.43;47.62;98114.38;2104375;28;20043;-48
2022/08/27 03:40:56;;;;;;;1.23;0.77;;;;;;;28.43;47.47;98110.84;2103737;28;20135;-49
2022/08/27 03:41:56;;;;;;;2.33;0.75;;;;;;;28.43;47.77;98113.56;2103882;28;20523;-49
2022/08/27 03:42:58;;;;;;;1.17;0.90;;;;;;;28.42;47.54;98109.19;2103487;28;20138;-47
2022/08/27 03:43:59;;;;;;;1.35;0.80;;;;;;;28.44;47.29;98117.91;2103152;28;20086;-49
2022/08/27 03:45:02;;;;;;;1.00;0.80;;;;;;;28.44;47.27;98117.91;2103087;28;20323;-50
2022/08/27 03:46:03;;;;;;;1.23;0.95;;;;;;;28.42;47.50;98111.91;2103379;28;20055;-49
2022/08/27 03:47:05;;;;;;;1.27;0.95;;;;;;;28.41;47.54;98122.00;2102076;28;20064;-49
2022/08/27 03:48:06;;;;;;;1.27;1.17;;;;;;;28.42;47.53;98118.22;2107003;28;20058;-47
2022/08/27 03:49:08;;;;;;;1.13;0.80;;;;;;;28.40;47.54;98114.91;2102079;28;20151;-49
2022/08/27 03:50:10;;;;;;;0.80;0.80;;;;;;;28.42;47.56;98118.22;2108701;28;20055;-50
2022/08/27 03:51:13;;;;;;;0.80;0.80;;;;;;;28.41;47.52;98110.25;2104132;28;20105;-47
2022/08/27 03:52:15;;;;;;;1.40;0.75;;;;;;;28.41;47.58;98121.19;2093443;28;20546;-48
2022/08/27 03:53:19;;;;;;;0.90;0.80;;;;;;;28.41;47.65;98115.72;2102279;28;20047;-49
2022/08/27 03:54:20;;;;;;;1.02;0.93;;;;;;;28.42;47.27;98120.09;2104483;28;20492;-48
2022/08/27 03:55:22;;;;;;;1.35;0.95;;;;;;;28.41;47.43;98116.53;2106319;28;20077;-49
2022/08/27 03:56:23;;;;;;;1.25;0.85;;;;;;;28.42;47.48;98117.38;2103303;28;20047;-49
2022/08/27 03:57:24;;;;;;;0.75;0.75;;;;;;;28.41;47.40;98122.00;2102564;28;20078;-47
2022/08/27 03:58:25;;;;;;;1.33;1.00;;;;;;;28.40;47.56;98125.81;2100276;28;20544;-50
2022/08/27 03:59:27;;;;;;;1.00;0.95;;;;;;;28.40;47.69;98117.63;2101937;28;20051;-51
2022/08/27 04:00:29;;;;;;;0.93;0.88;;;;;;;28.42;47.56;98120.09;2105666;28;20402;-48
2022/08/27 04:01:31;;;;;;;0.73;0.63;;;;;;;28.42;47.39;98125.56;2105065;28;20393;-46
2022/08/27 04:02:32;;;;;;;0.80;0.60;;;;;;;28.40;47.60;98128.56;2102149;28;20669;-49
2022/08/27 04:03:35;;;;;;;0.93;0.73;;;;;;;28.41;47.24;98124.72;2106196;28;20044;-47
2022/08/27 04:04:36;;;;;;;1.58;0.98;;;;;;;28.39;47.68;98126.94;2104091;28;20052;-48
2022/08/27 04:05:37;;;;;;;0.73;0.65;;;;;;;28.39;47.61;98123.38;2103631;28;20113;-47
2022/08/27 04:06:38;;;;;;;0.93;0.70;;;;;;;28.40;47.43;98122.28;2106483;28;20407;-47
2022/08/27 04:07:41;;;;;;;0.60;0.60;;;;;;;28.42;47.57;98122.81;2103743;28;20049;-46
2022/08/27 04:08:42;;;;;;;1.35;0.75;;;;;;;28.39;47.47;98121.47;2105751;28;20051;-49
2022/08/27 04:09:44;;;;;;;1.33;0.93;;;;;;;28.37;47.41;98123.66;2106038;28;20127;-49
2022/08/27 04:10:45;;;;;;;1.35;0.82;;;;;;;28.38;47.57;98121.75;2105817;28;20054;-50
2022/08/27 04:11:47;;;;;;;1.42;0.88;;;;;;;28.38;47.42;98122.56;2102801;28;20052;-49
2022/08/27 04:12:47;;;;;;;1.02;0.80;;;;;;;28.38;47.57;98130.72;2104236;28;20060;-48
2022/08/27 04:13:49;;;;;;;1.08;0.77;;;;;;;28.37;47.50;98126.38;2105810;28;20054;-47
2022/08/27 04:14:50;;;;;;;2.13;0.80;;;;;;;28.38;47.71;98129.94;2103921;28;20048;-47
2022/08/27 04:15:55;;;;;;;1.10;0.68;;;;;;;28.40;47.48;98130.47;2103967;28;20477;-48
2022/08/27 04:16:56;;;;;;;1.08;0.80;;;;;;;28.36;47.48;98124.78;2103480;28;20595;-48
2022/08/27 04:17:58;;;;;;;1.05;0.70;;;;;;;28.37;47.37;98126.38;2104190;28;20052;-48
2022/08/27 04:18:59;;;;;;;0.90;0.60;;;;;;;28.37;47.81;98128.31;2102835;27;20044;-46
2022/08/27 04:20:01;;;;;;;1.67;1.15;;;;;;;28.37;47.55;98123.66;2102866;28;20678;-48
2022/08/27 04:21:07;;;;;;;1.35;0.90;;;;;;;28.36;47.64;98119.31;2101984;28;20071;-47
2022/08/27 04:22:09;;;;;;;1.02;0.93;;;;;;;28.37;47.77;98122.84;2106984;28;20131;-50
2022/08/27 04:23:10;;;;;;;0.77;0.77;;;;;;;28.37;47.64;98126.38;2106616;28;20751;-48
2022/08/27 04:24:12;;;;;;;1.33;1.00;;;;;;;28.36;47.66;98123.94;2103573;27;20134;-46
2022/08/27 04:25:12;;;;;;;1.40;1.20;;;;;;;28.35;47.45;98122.31;2102909;28;20055;-47
2022/08/27 04:26:15;;;;;;;0.82;0.82;;;;;;;28.35;47.60;98122.31;2102938;28;20044;-49
2022/08/27 04:27:16;;;;;;;2.05;1.15;;;;;;;28.36;47.68;98127.50;2106919;28;20044;-48
2022/08/27 04:28:18;;;;;;;1.33;1.10;;;;;;;28.37;47.46;98136.50;2105280;28;20044;-50
2022/08/27 04:29:19;;;;;;;1.05;0.95;;;;;;;28.37;47.56;98131.03;2108001;28;20063;-47
2022/08/27 04:30:21;;;;;;;1.08;0.82;;;;;;;28.35;47.65;98127.75;2104697;28;20051;-50
2022/08/27 04:31:24;;;;;;;3.03;0.90;;;;;;;28.36;47.50;98129.38;2104140;28;20590;-47
2022/08/27 04:32:27;;;;;;;0.80;0.80;;;;;;;28.35;47.47;98138.66;2109048;28;20055;-47
2022/08/27 04:33:30;;;;;;;0.77;0.77;;;;;;;28.36;47.62;98141.13;2106449;28;20052;-47
2022/08/27 04:34:33;;;;;;;1.25;1.08;;;;;;;28.36;47.70;98141.13;2106235;28;20461;-48
2022/08/27 04:35:35;;;;;;;2.38;1.00;;;;;;;28.35;47.52;98149.56;2105426;28;20561;-46
2022/08/27 04:36:35;;;;;;;0.80;0.80;;;;;;;28.34;47.66;98137.06;2105890;28;20056;-49
2022/08/27 04:37:37;;;;;;;0.70;0.70;;;;;;;28.34;47.50;98147.97;2107823;28;20048;-52
2022/08/27 04:38:38;;;;;;;0.60;0.60;;;;;;;28.33;47.67;98141.66;2105825;28;20124;-48
2022/08/27 04:39:40;;;;;;;0.73;0.73;;;;;;;28.34;47.68;98145.22;2104540;28;20066;-48
2022/08/27 04:42:01;;;;;;;0.85;0.80;;;;;;;28.31;47.58;98143.06;2104375;28;20409;-52
2022/08/27 04:43:02;;;;;;;0.60;0.60;;;;;;;28.33;47.70;98143.59;2103831;28;20048;-49
2022/08/27 04:44:06;;;;;;;1.00;1.00;;;;;;;28.31;47.46;98141.16;2106954;28;20075;-48
2022/08/27 04:45:08;;;;;;;1.30;0.80;;;;;;;28.32;47.60;98140.03;2106154;28;20040;-47
2022/08/27 04:46:10;;;;;;;0.75;0.70;;;;;;;28.31;47.74;98145.78;2104453;28;21473;-48
2022/08/27 04:47:13;;;;;;;1.20;1.00;;;;;;;28.34;47.52;98145.22;2103865;28;20052;-46
2022/08/27 04:48:18;;;;;;;1.30;0.88;;;;;;;28.33;47.59;98140.84;2103870;28;20706;-48
2022/08/27 04:49:19;;;;;;;0.95;0.65;;;;;;;28.32;47.70;98140.03;2103419;28;20127;-46
2022/08/27 04:50:20;;;;;;;0.80;0.80;;;;;;;28.33;47.34;98143.59;2109731;28;20047;-48
2022/08/27 04:51:21;;;;;;;1.08;0.98;;;;;;;28.34;47.48;98139.78;2104874;27;20048;-46
2022/08/27 04:52:23;;;;;;;0.77;0.75;;;;;;;28.31;47.78;98140.34;2103859;27;20589;-48
2022/08/27 04:53:24;;;;;;;0.95;0.85;;;;;;;28.31;47.67;98137.63;2104738;28;20541;-49
2022/08/27 04:54:25;;;;;;;1.17;1.08;;;;;;;28.31;47.66;98137.63;2104244;28;20135;-50
2022/08/27 04:55:26;;;;;;;1.08;1.00;;;;;;;28.32;47.48;98140.03;2103655;28;20052;-48
2022/08/27 04:56:29;;;;;;;0.90;0.90;;;;;;;28.33;47.63;98140.84;2104742;28;20115;-49